Time;durP1;ratioP1;P1;durP2;ratioP2;P2;SDS_P1;SDS_P2;PMS_P1;PMS_P2;Temp;Humidity;BMP_temperature;BMP_pressure;BME280_temperature;BME280_humidity;BME280_pressure;Samples;Min_cycle;Max_cycle;Signal;HPM_P1;HPM_P2
2023/10/09 00:01:01;;;;;;;;;;;;;;;12.80;68.42;101841.88;4221821;28;20030;-70
2023/10/09 00:03:04;;;;;;;;;;;;;;;12.80;68.72;101841.88;4222005;28;20027;-70
2023/10/09 00:05:10;;;;;;;;;;;;;;;12.76;69.12;101835.97;4221966;28;20023;-70
2023/10/09 00:07:12;;;;;;;;;;;;;;;12.77;69.58;101829.53;4222328;28;20030;-70
2023/10/09 00:09:18;;;;;;;;;;;;;;;12.76;69.45;101824.28;4221860;28;20014;-71
2023/10/09 00:11:26;;;;;;;;;;;;;;;12.75;69.25;101803.59;4222146;28;20367;-72
2023/10/09 00:13:30;;;;;;;;;;;;;;;12.73;68.83;101806.47;4222294;28;20010;-71
2023/10/09 00:15:33;;;;;;;;;;;;;;;12.71;68.78;101805.78;4222758;28;20442;-70
2023/10/09 00:17:38;;;;;;;;;;;;;;;12.69;69.28;101810.50;4222017;28;20580;-71
2023/10/09 00:19:42;;;;;;;;;;;;;;;12.66;71.66;101810.00;4220908;28;20393;-70
2023/10/09 00:21:44;;;;;;;;;;;;;;;12.64;72.99;101802.03;4221320;28;20011;-70
2023/10/09 00:23:52;;;;;;;;;;;;;;;12.58;72.79;101797.28;4236864;27;20018;-71
2023/10/09 00:26:08;;;;;;;;;;;;;;;12.57;74.21;101793.72;4221723;28;20057;-70
2023/10/09 00:28:12;;;;;;;;;;;;;;;12.62;72.47;101790.53;4222021;28;20047;-70
2023/10/09 00:30:17;;;;;;;;;;;;;;;12.61;70.80;101788.81;4221753;28;20008;-70
2023/10/09 00:32:25;;;;;;;;;;;;;;;12.66;70.30;101777.47;4220444;28;19923;-71
2023/10/09 00:34:27;;;;;;;;;;;;;;;12.61;70.92;101772.56;4220310;28;20015;-71
2023/10/09 00:36:29;;;;;;;;;;;;;;;12.57;71.24;101765.75;4221567;28;20481;-71
2023/10/09 00:38:33;;;;;;;;;;;;;;;12.52;71.46;101766.25;4222307;27;20477;-71
2023/10/09 00:40:45;;;;;;;;;;;;;;;12.48;73.06;101764.06;4219929;28;20050;-70
2023/10/09 00:42:48;;;;;;;;;;;;;;;12.50;75.03;101760.16;4219849;28;20386;-71
2023/10/09 00:44:54;;;;;;;;;;;;;;;12.49;75.35;101760.31;4235989;27;20030;-70
2023/10/09 00:47:07;;;;;;;;;;;;;;;12.52;75.27;101754.56;4219372;28;20624;-70
2023/10/09 00:49:10;;;;;;;;;;;;;;;12.47;73.78;101751.50;4221412;28;20015;-70
2023/10/09 00:51:18;;;;;;;;;;;;;;;12.42;74.50;101749.31;4221325;28;20019;-70
2023/10/09 00:53:30;;;;;;;;;;;;;;;12.41;75.30;101744.88;4221165;28;19984;-70
2023/10/09 00:55:38;;;;;;;;;;;;;;;12.42;74.60;101736.59;4220540;28;20020;-70
2023/10/09 00:57:40;;;;;;;;;;;;;;;12.41;74.92;101739.47;4221600;28;20028;-71
2023/10/09 00:59:43;;;;;;;;;;;;;;;12.41;75.23;101729.50;4219671;28;20027;-70
2023/10/09 01:01:55;;;;;;;;;;;;;;;12.41;75.32;101734.91;4221468;28;20014;-70
2023/10/09 01:03:59;;;;;;;;;;;;;;;12.43;75.72;101726.63;4203130;28;20557;-70
2023/10/09 01:06:16;;;;;;;;;;;;;;;12.40;75.30;101716.94;4221500;28;20473;-70
2023/10/09 01:08:25;;;;;;;;;;;;;;;12.43;74.91;101716.63;4221466;28;20023;-70
2023/10/09 01:10:34;;;;;;;;;;;;;;;12.42;75.27;101725.75;4220678;28;20445;-70
2023/10/09 01:12:42;;;;;;;;;;;;;;;12.42;75.30;101719.50;4235649;27;20018;-71
2023/10/09 01:14:44;;;;;;;;;;;;;;;12.36;74.71;101709.31;4220160;28;20019;-71
2023/10/09 01:16:47;;;;;;;;;;;;;;;12.33;75.63;101710.50;4203236;28;20669;-70
2023/10/09 01:18:49;;;;;;;;;;;;;;;12.35;75.78;101696.78;4220098;28;20452;-71
2023/10/09 01:20:52;;;;;;;;;;;;;;;12.32;76.01;101689.84;4220369;28;20019;-70
2023/10/09 01:22:54;;;;;;;;;;;;;;;12.31;76.32;101684.59;4221307;28;20023;-70
2023/10/09 01:24:59;;;;;;;;;;;;;;;12.28;76.73;101683.06;4219042;28;20028;-70
2023/10/09 01:27:05;;;;;;;;;;;;;;;12.26;75.98;101683.22;4220484;28;20423;-71
2023/10/09 01:29:10;;;;;;;;;;;;;;;12.23;76.50;101675.44;4221179;28;20022;-70
2023/10/09 01:31:12;;;;;;;;;;;;;;;12.20;77.09;101670.34;4218726;28;20015;-70
2023/10/09 01:33:17;;;;;;;;;;;;;;;12.25;77.26;101669.84;4200561;28;20027;-70
2023/10/09 01:35:21;;;;;;;;;;;;;;;12.31;76.96;101650.22;4220783;28;20027;-70
2023/10/09 01:37:27;;;;;;;;;;;;;;;12.31;76.92;101636.69;4219725;28;20018;-70
2023/10/09 01:39:30;;;;;;;;;;;;;;;12.26;77.13;101639.88;4219593;28;20030;-70
2023/10/09 01:41:34;;;;;;;;;;;;;;;12.26;77.44;101637.19;4220734;28;20478;-71
2023/10/09 01:43:38;;;;;;;;;;;;;;;12.29;77.39;101625.16;4235504;27;20538;-70
2023/10/09 01:45:43;;;;;;;;;;;;;;;12.26;77.34;101611.97;4219893;28;20012;-70
2023/10/09 01:47:51;;;;;;;;;;;;;;;12.26;77.32;101598.41;4221107;28;20036;-70
2023/10/09 01:49:53;;;;;;;;;;;;;;;12.26;77.27;101595.72;4218349;28;20011;-70
2023/10/09 01:51:54;;;;;;;;;;;;;;;12.23;77.09;101588.75;4202514;28;20028;-70
2023/10/09 01:53:58;;;;;;;;;;;;;;;12.24;77.02;101571.50;4218805;28;19959;-70
2023/10/09 01:56:14;;;;;;;;;;;;;;;12.31;77.20;101558.13;4220729;28;19946;-70
2023/10/09 01:58:24;;;;;;;;;;;;;;;12.29;76.60;101557.47;4219264;28;20018;-70
2023/10/09 02:00:29;;;;;;;;;;;;;;;12.23;77.36;101556.25;4218381;28;20030;-70
2023/10/09 02:02:33;;;;;;;;;;;;;;;12.22;77.48;101559.97;4220203;28;20003;-70
2023/10/09 02:04:34;;;;;;;;;;;;;;;12.16;78.12;101570.63;4219876;28;20023;-70
2023/10/09 02:06:37;;;;;;;;;;;;;;;12.16;78.00;101562.50;4219158;28;20480;-70
2023/10/09 02:08:39;;;;;;;;;;;;;;;12.20;78.03;101558.47;4221147;28;20357;-70
2023/10/09 02:10:47;;;;;;;;;;;;;;;12.13;78.81;101562.84;4235451;27;20588;-70
2023/10/09 02:12:52;;;;;;;;;;;;;;;12.16;78.42;101557.09;4234621;27;20457;-70
2023/10/09 02:14:55;;;;;;;;;;;;;;;12.14;78.48;101542.88;4218459;28;20010;-70
2023/10/09 02:17:03;;;;;;;;;;;;;;;12.06;79.03;101533.72;4220739;28;19924;-70
2023/10/09 02:19:08;;;;;;;;;;;;;;;12.04;78.78;101534.91;4218363;28;20022;-70
2023/10/09 02:21:15;;;;;;;;;;;;;;;11.98;79.57;101531.00;4218693;28;20028;-70
2023/10/09 02:23:20;;;;;;;;;;;;;;;12.00;79.17;101557.91;4217865;28;19967;-70
2023/10/09 02:25:29;;;;;;;;;;;;;;;12.05;79.75;101571.78;4203437;28;20473;-69
2023/10/09 02:27:53;;;;;;;;;;;;;;;12.01;79.78;101582.13;4218694;28;19987;-70
2023/10/09 02:29:58;;;;;;;;;;;;;;;11.97;80.46;101577.19;4219515;28;20035;-72
2023/10/09 02:32:13;;;;;;;;;;;;;;;11.95;80.70;101566.53;4220131;28;20019;-69
2023/10/09 02:34:15;;;;;;;;;;;;;;;11.95;80.91;101558.41;4219676;28;20584;-69
2023/10/09 02:36:17;;;;;;;;;;;;;;;11.97;80.71;101555.53;4219529;28;20030;-70
2023/10/09 02:38:22;;;;;;;;;;;;;;;11.95;81.09;101553.00;4220352;28;19928;-69
2023/10/09 02:40:31;;;;;;;;;;;;;;;11.92;81.94;101552.47;4215658;28;20024;-72
2023/10/09 02:42:34;;;;;;;;;;;;;;;11.93;81.49;101557.75;4219496;28;20049;-69
2023/10/09 02:44:40;;;;;;;;;;;;;;;11.90;81.90;101566.16;4218798;28;20355;-69
2023/10/09 02:46:44;;;;;;;;;;;;;;;11.88;82.12;101577.16;4218593;28;20023;-70
2023/10/09 02:48:50;;;;;;;;;;;;;;;11.87;82.14;101559.22;4220058;28;20022;-69
2023/10/09 02:50:54;;;;;;;;;;;;;;;11.88;82.72;101558.22;4217445;28;20023;-69
2023/10/09 02:53:08;;;;;;;;;;;;;;;11.88;83.17;101549.22;4218388;28;20016;-69
2023/10/09 02:55:13;;;;;;;;;;;;;;;11.89;82.91;101542.81;4234755;28;20023;-69
2023/10/09 02:57:23;;;;;;;;;;;;;;;11.92;82.64;101514.56;4219449;28;20018;-69
2023/10/09 02:59:25;;;;;;;;;;;;;;;11.93;82.79;101517.13;4219833;28;19925;-70
2023/10/09 03:01:27;;;;;;;;;;;;;;;11.90;83.56;101518.28;4218907;28;20022;-70
2023/10/09 03:03:35;;;;;;;;;;;;;;;11.94;83.41;101517.97;4218333;28;20031;-72
2023/10/09 03:05:42;;;;;;;;;;;;;;;11.97;83.55;101501.41;4218601;28;20014;-69
2023/10/09 03:07:44;;;;;;;;;;;;;;;11.95;83.84;101498.03;4218846;28;20037;-70
2023/10/09 03:09:46;;;;;;;;;;;;;;;11.97;83.91;101491.41;4234456;28;20007;-69
2023/10/09 03:11:53;;;;;;;;;;;;;;;12.03;83.57;101484.47;4234091;28;20018;-69
2023/10/09 03:13:55;;;;;;;;;;;;;;;12.04;83.51;101483.47;4217319;28;20389;-68
2023/10/09 03:15:57;;;;;;;;;;;;;;;12.02;83.73;101480.06;4218570;28;20011;-69
2023/10/09 03:18:00;;;;;;;;;;;;;;;12.03;83.65;101471.78;4219464;28;20023;-69
2023/10/09 03:20:11;;;;;;;;;;;;;;;12.07;83.42;101462.31;4219633;28;20383;-70
2023/10/09 03:22:14;;;;;;;;;;;;;;;12.04;83.30;101457.25;4219437;28;20588;-71
2023/10/09 03:24:16;;;;;;;;;;;;;;;11.98;83.84;101455.22;4219742;28;20019;-70
2023/10/09 03:26:19;;;;;;;;;;;;;;;11.95;83.79;101452.00;4218740;28;20051;-69
2023/10/09 03:28:21;;;;;;;;;;;;;;;11.92;84.36;101436.94;4221395;28;20425;-70
2023/10/09 03:30:23;;;;;;;;;;;;;;;11.91;84.29;101440.63;4221334;28;20018;-69
2023/10/09 03:32:25;;;;;;;;;;;;;;;11.89;84.62;101435.38;4221509;28;20007;-68
2023/10/09 03:34:27;;;;;;;;;;;;;;;11.94;84.67;101437.59;4220366;28;20026;-70
2023/10/09 03:36:37;;;;;;;;;;;;;;;11.99;84.19;101434.38;4218220;28;20078;-70
2023/10/09 03:38:39;;;;;;;;;;;;;;;12.01;83.69;101432.38;4223237;28;20015;-71
2023/10/09 03:40:43;;;;;;;;;;;;;;;12.00;83.49;101430.69;4220530;28;19966;-69
2023/10/09 03:42:45;;;;;;;;;;;;;;;11.95;83.30;101419.53;4222821;28;20019;-70
2023/10/09 03:44:52;;;;;;;;;;;;;;;11.94;83.61;101420.53;4222623;28;20058;-69
2023/10/09 03:46:54;;;;;;;;;;;;;;;11.92;83.69;101419.81;4222362;28;20015;-70
2023/10/09 03:48:56;;;;;;;;;;;;;;;11.88;84.37;101412.03;4219489;28;20019;-69
2023/10/09 03:51:08;;;;;;;;;;;;;;;11.93;83.97;101402.56;4217825;28;20236;-69
2023/10/09 03:53:12;;;;;;;;;;;;;;;11.90;83.51;101396.47;4222148;28;20375;-69
2023/10/09 03:55:15;;;;;;;;;;;;;;;11.94;83.59;101380.75;4222758;28;20015;-69
2023/10/09 03:57:19;;;;;;;;;;;;;;;11.95;83.32;101371.63;4222696;28;20054;-70
2023/10/09 03:59:21;;;;;;;;;;;;;;;11.91;84.08;101367.53;4222823;28;20500;-71
2023/10/09 04:01:27;;;;;;;;;;;;;;;11.90;84.05;101368.56;4222163;28;20469;-71
2023/10/09 04:03:29;;;;;;;;;;;;;;;11.89;83.94;101361.44;4222614;28;20049;-72
2023/10/09 04:05:31;;;;;;;;;;;;;;;11.88;84.13;101352.50;4220823;28;20014;-72
2023/10/09 04:07:33;;;;;;;;;;;;;;;11.95;83.71;101357.25;4222331;28;20018;-71
2023/10/09 04:09:39;;;;;;;;;;;;;;;11.90;83.59;101358.56;4220515;28;20007;-70
2023/10/09 04:11:43;;;;;;;;;;;;;;;11.85;83.86;101368.25;4221344;28;20055;-72
2023/10/09 04:13:46;;;;;;;;;;;;;;;11.82;84.47;101374.81;4203835;28;20039;-69
2023/10/09 04:15:49;;;;;;;;;;;;;;;11.81;84.85;101378.53;4221945;28;20027;-70
2023/10/09 04:17:52;;;;;;;;;;;;;;;11.78;85.31;101389.69;4222259;28;20036;-72
2023/10/09 04:20:47;;;;;;;;;;;;;;;11.78;85.22;101387.00;4221665;28;20015;-72
2023/10/09 04:22:27;;;;;;;;;;;;;;;11.81;85.44;101394.78;4222203;28;20459;-69
2023/10/09 04:24:35;;;;;;;;;;;;;;;11.79;85.83;101396.81;4222006;28;19924;-69
2023/10/09 04:26:44;;;;;;;;;;;;;;;11.80;85.80;101398.50;4221354;28;20020;-69
2023/10/09 04:28:51;;;;;;;;;;;;;;;11.80;85.55;101401.22;4221610;28;20036;-71
2023/10/09 04:30:55;;;;;;;;;;;;;;;11.80;85.31;101403.06;4221386;28;20481;-69
2023/10/09 04:32:59;;;;;;;;;;;;;;;11.79;85.12;101386.00;4220537;28;20015;-69
2023/10/09 04:37:36;;;;;;;;;;;;;;;11.81;85.38;101396.66;4221132;28;20015;-69
2023/10/09 04:39:46;;;;;;;;;;;;;;;11.75;85.14;101373.81;4221528;28;20015;-70
2023/10/09 04:42:18;;;;;;;;;;;;;;;11.83;84.46;101362.13;4220992;28;20018;-68
2023/10/09 04:44:18;;;;;;;;;;;;;;;11.81;84.52;101373.13;4221480;28;19959;-68
2023/10/09 04:46:23;;;;;;;;;;;;;;;11.78;84.75;101391.56;4221336;28;20026;-69
2023/10/09 04:48:37;;;;;;;;;;;;;;;11.78;85.47;101380.75;4220801;28;20043;-69
2023/10/09 04:51:10;;;;;;;;;;;;;;;11.78;85.66;101387.00;4220637;28;20018;-68
2023/10/09 04:53:25;;;;;;;;;;;;;;;11.79;85.56;101385.16;4220945;28;20022;-71
2023/10/09 04:55:26;;;;;;;;;;;;;;;11.77;85.32;101388.03;4220099;28;19956;-71
2023/10/09 04:57:38;;;;;;;;;;;;;;;11.76;84.45;101386.31;4220463;28;20012;-69
2023/10/09 04:59:47;;;;;;;;;;;;;;;11.75;84.14;101370.25;4222189;28;20030;-71
2023/10/09 05:01:57;;;;;;;;;;;;;;;11.72;83.46;101363.31;4220324;28;20032;-72
2023/10/09 05:04:04;;;;;;;;;;;;;;;11.73;83.34;101360.44;4221386;28;20031;-69
2023/10/09 05:06:20;;;;;;;;;;;;;;;11.70;83.54;101370.75;4221009;28;19923;-69
2023/10/09 05:08:28;;;;;;;;;;;;;;;11.65;83.71;101365.84;4221546;28;20019;-69
2023/10/09 05:10:32;;;;;;;;;;;;;;;11.66;83.92;101350.47;4235279;27;20405;-70
2023/10/09 05:12:41;;;;;;;;;;;;;;;11.67;83.55;101350.28;4221097;28;20426;-68
2023/10/09 05:14:54;;;;;;;;;;;;;;;11.65;84.18;101354.19;4218929;28;20038;-68
2023/10/09 05:17:01;;;;;;;;;;;;;;;11.66;83.98;101353.16;4221385;28;20350;-68
2023/10/09 05:19:06;;;;;;;;;;;;;;;11.66;84.19;101350.47;4219729;28;20058;-70
2023/10/09 05:21:35;;;;;;;;;;;;;;;11.64;84.36;101363.31;4220764;28;20372;-70
2023/10/09 05:23:44;;;;;;;;;;;;;;;11.64;84.62;101350.63;4222090;28;20007;-70
2023/10/09 05:25:55;;;;;;;;;;;;;;;11.64;84.27;101356.03;4219879;28;20459;-69
2023/10/09 05:28:24;;;;;;;;;;;;;;;11.69;84.22;101352.81;4220431;28;20063;-69
2023/10/09 05:30:25;;;;;;;;;;;;;;;11.66;83.59;101354.03;4219404;28;20011;-71
2023/10/09 05:32:34;;;;;;;;;;;;;;;11.62;84.07;101344.53;4219552;28;20027;-69
2023/10/09 05:35:05;;;;;;;;;;;;;;;11.63;83.70;101354.38;4215966;28;20019;-71
2023/10/09 05:37:10;;;;;;;;;;;;;;;11.60;83.51;101346.59;4216326;28;20688;-68
2023/10/09 05:39:22;;;;;;;;;;;;;;;11.62;83.15;101346.41;4218534;28;20014;-70
2023/10/09 05:41:47;;;;;;;;;;;;;;;11.59;83.35;101347.59;4218031;28;20081;-69
2023/10/09 05:46:14;;;;;;;;;;;;;;;11.57;83.57;101335.22;4218439;28;20018;-69
2023/10/09 05:48:54;;;;;;;;;;;;;;;11.58;83.60;101335.06;4218278;28;20478;-70
2023/10/09 05:53:34;;;;;;;;;;;;;;;11.52;83.89;101342.03;4219365;28;20022;-70
2023/10/09 06:04:57;;;;;;;;;;;;;;;11.47;84.85;101349.81;4217494;28;20014;-70
2023/10/09 06:07:12;;;;;;;;;;;;;;;11.47;85.24;101360.63;4217651;28;20449;-69
2023/10/09 06:09:49;;;;;;;;;;;;;;;11.46;85.27;101358.09;4218715;28;19924;-69
2023/10/09 06:11:55;;;;;;;;;;;;;;;11.49;85.51;101361.28;4218716;28;20014;-71
2023/10/09 06:14:03;;;;;;;;;;;;;;;11.48;85.95;101345.22;4218892;28;20026;-70
2023/10/09 06:18:32;;;;;;;;;;;;;;;11.52;86.02;101355.53;4213493;28;20026;-69
2023/10/09 06:21:06;;;;;;;;;;;;;;;11.51;86.41;101356.53;4218384;28;20354;-69
2023/10/09 06:23:15;;;;;;;;;;;;;;;11.54;86.19;101355.38;4216516;28;20375;-72
2023/10/09 06:25:17;;;;;;;;;;;;;;;11.58;86.05;101339.66;4219631;28;20433;-68
2023/10/09 06:27:43;;;;;;;;;;;;;;;11.62;85.76;101343.72;4218618;27;20039;-72
2023/10/09 06:32:34;;;;;;;;;;;;;;;11.61;85.47;101334.72;4217940;28;20051;-71
2023/10/09 06:34:35;;;;;;;;;;;;;;;11.64;85.42;101334.38;4217662;28;20022;-71
2023/10/09 06:36:46;;;;;;;;;;;;;;;11.66;85.16;101340.50;4217750;28;20055;-69
2023/10/09 06:39:50;;;;;;;;;;;;;;;11.68;84.70;101338.47;4217193;28;20023;-69
2023/10/09 06:43:42;;;;;;;;;;;;;;;11.63;84.32;101326.44;4218482;28;19923;-70
2023/10/09 06:45:44;;;;;;;;;;;;;;;11.65;84.68;101330.69;4218272;28;20019;-70
2023/10/09 06:48:07;;;;;;;;;;;;;;;11.67;84.39;101325.94;4218955;28;20022;-69
2023/10/09 06:50:24;;;;;;;;;;;;;;;11.66;84.68;101312.56;4218066;28;20027;-71
2023/10/09 06:52:57;;;;;;;;;;;;;;;11.62;84.89;101319.38;4217161;28;20012;-71
2023/10/09 06:54:50;;;;;;;;;;;;;;;11.61;85.66;101323.06;4217941;28;20019;-69
2023/10/09 06:59:16;;;;;;;;;;;;;;;11.59;86.21;101322.41;4218641;28;20020;-70
2023/10/09 07:01:28;;;;;;;;;;;;;;;11.64;86.59;101317.31;4216920;28;20396;-71
2023/10/09 07:03:32;;;;;;;;;;;;;;;11.66;85.66;101318.00;4218708;28;20019;-70
2023/10/09 07:05:48;;;;;;;;;;;;;;;11.63;85.91;101312.91;4216008;28;20031;-70
2023/10/09 07:08:12;;;;;;;;;;;;;;;11.66;86.22;101307.16;4217620;28;20086;-69
2023/10/09 07:10:28;;;;;;;;;;;;;;;11.66;86.44;101305.31;4217943;28;20345;-71
2023/10/09 07:12:32;;;;;;;;;;;;;;;11.71;85.94;101304.81;4218117;28;20015;-73
2023/10/09 07:16:57;;;;;;;;;;;;;;;11.72;85.28;101310.06;4217873;28;20015;-69
2023/10/09 07:19:09;;;;;;;;;;;;;;;11.74;85.60;101315.31;4218168;28;20438;-69
2023/10/09 07:21:13;;;;;;;;;;;;;;;11.79;85.17;101318.34;4216539;28;20047;-70
2023/10/09 07:23:14;;;;;;;;;;;;;;;11.74;85.50;101318.00;4217484;28;20449;-69
2023/10/09 07:25:27;;;;;;;;;;;;;;;11.76;85.11;101307.00;4218150;28;20006;-70
2023/10/09 07:27:43;;;;;;;;;;;;;;;11.75;84.98;101311.56;4217765;28;20557;-72
2023/10/09 07:29:47;;;;;;;;;;;;;;;11.80;84.71;101308.34;4218639;28;20031;-71
2023/10/09 07:31:57;;;;;;;;;;;;;;;11.77;84.75;101314.97;4217829;28;20022;-73
2023/10/09 07:33:59;;;;;;;;;;;;;;;11.80;84.73;101316.47;4218365;28;20027;-69
2023/10/09 07:36:06;;;;;;;;;;;;;;;11.80;84.84;101316.47;4217447;28;20773;-68
2023/10/09 07:38:08;;;;;;;;;;;;;;;11.83;84.72;101327.81;4218373;28;20022;-69
2023/10/09 07:40:14;;;;;;;;;;;;;;;11.82;85.07;101320.69;4216881;28;20022;-69
2023/10/09 07:42:19;;;;;;;;;;;;;;;11.84;84.74;101323.22;4217606;28;20450;-70
2023/10/09 07:44:34;;;;;;;;;;;;;;;11.84;84.18;101320.53;4218485;28;20011;-70
2023/10/09 07:46:52;;;;;;;;;;;;;;;11.85;84.51;101304.13;4217809;28;20019;-69
2023/10/09 07:48:54;;;;;;;;;;;;;;;11.91;83.87;101310.69;4219302;28;20015;-69
2023/10/09 07:50:57;;;;;;;;;;;;;;;11.88;84.19;101322.72;4219090;28;19928;-69
2023/10/09 07:53:14;;;;;;;;;;;;;;;11.91;83.77;101321.50;4217947;28;20569;-69
2023/10/09 07:55:26;;;;;;;;;;;;;;;11.92;83.67;101330.50;4218739;28;20023;-70
2023/10/09 07:57:32;;;;;;;;;;;;;;;11.95;83.66;101324.78;4218769;28;20019;-70
2023/10/09 07:59:49;;;;;;;;;;;;;;;11.97;83.01;101314.59;4218160;28;20023;-70
2023/10/09 08:01:53;;;;;;;;;;;;;;;11.96;83.42;101321.03;4216846;28;20011;-70
2023/10/09 08:04:01;;;;;;;;;;;;;;;11.97;83.40;101333.56;4216926;28;20014;-71
2023/10/09 08:06:37;;;;;;;;;;;;;;;11.92;84.55;101349.44;4217856;28;20429;-69
2023/10/09 08:09:17;;;;;;;;;;;;;;;11.94;84.31;101350.16;4218004;28;20018;-69
2023/10/09 08:15:56;;;;;;;;;;;;;;;11.98;84.42;101349.63;4221783;28;20039;-71
2023/10/09 08:17:59;;;;;;;;;;;;;;;11.97;84.93;101360.63;4221798;28;20022;-69
2023/10/09 08:20:11;;;;;;;;;;;;;;;11.96;85.13;101370.63;4220766;28;20015;-69
2023/10/09 08:24:41;;;;;;;;;;;;;;;11.99;84.92;101380.25;4212949;28;20027;-69
2023/10/09 08:27:27;;;;;;;;;;;;;;;12.01;85.18;101380.94;4220241;28;20050;-71
2023/10/09 08:29:19;;;;;;;;;;;;;;;11.95;86.00;101371.63;4221816;28;20093;-69
2023/10/09 08:31:34;;;;;;;;;;;;;;;12.00;85.69;101373.81;4214350;28;19932;-73
2023/10/09 08:33:41;;;;;;;;;;;;;;;12.02;84.79;101374.50;4213863;28;20035;-69
2023/10/09 08:35:47;;;;;;;;;;;;;;;12.03;84.43;101376.19;4214311;28;20023;-70
2023/10/09 08:37:50;;;;;;;;;;;;;;;12.03;84.31;101376.19;4218429;28;20023;-69
2023/10/09 08:39:54;;;;;;;;;;;;;;;12.03;84.65;101378.91;4220025;28;20027;-69
2023/10/09 08:41:57;;;;;;;;;;;;;;;12.01;84.50;101376.34;4219609;28;20011;-69
2023/10/09 08:43:59;;;;;;;;;;;;;;;11.99;85.02;101373.00;4220829;28;20022;-69
2023/10/09 08:46:01;;;;;;;;;;;;;;;12.01;85.20;101360.13;4219809;28;20023;-69
2023/10/09 08:48:05;;;;;;;;;;;;;;;12.01;85.25;101360.13;4216096;28;20026;-69
2023/10/09 08:50:13;;;;;;;;;;;;;;;12.02;84.95;101363.66;4219116;28;20019;-72
2023/10/09 08:52:15;;;;;;;;;;;;;;;12.00;85.43;101365.69;4213185;28;20395;-69
2023/10/09 08:54:18;;;;;;;;;;;;;;;11.99;85.02;101370.28;4218064;28;20376;-68
2023/10/09 08:56:25;;;;;;;;;;;;;;;11.98;84.79;101362.34;4219685;28;19932;-69
2023/10/09 08:58:34;;;;;;;;;;;;;;;11.98;85.07;101357.75;4217693;28;20019;-68
2023/10/09 09:00:38;;;;;;;;;;;;;;;12.00;85.13;101360.28;4217972;28;20526;-70
2023/10/09 09:02:40;;;;;;;;;;;;;;;12.01;84.58;101351.16;4214297;28;20057;-70
2023/10/09 09:04:45;;;;;;;;;;;;;;;12.04;84.30;101353.53;4218243;28;20011;-68
2023/10/09 09:06:47;;;;;;;;;;;;;;;12.01;84.80;101346.59;4218113;28;20023;-69
2023/10/09 09:08:54;;;;;;;;;;;;;;;12.03;85.42;101343.69;4214812;28;20018;-68
2023/10/09 09:11:11;;;;;;;;;;;;;;;12.06;85.46;101349.59;4217385;28;20023;-70
2023/10/09 09:13:18;;;;;;;;;;;;;;;12.08;85.67;101338.59;4220886;28;19952;-71
2023/10/09 09:15:21;;;;;;;;;;;;;;;12.06;85.88;101338.78;4220980;28;20042;-69
2023/10/09 09:17:30;;;;;;;;;;;;;;;12.05;86.22;101339.81;4217193;28;20030;-71
2023/10/09 09:19:33;;;;;;;;;;;;;;;12.08;85.58;101344.88;4219536;28;20388;-70
2023/10/09 09:21:40;;;;;;;;;;;;;;;12.05;85.42;101341.66;4217171;28;20011;-69
2023/10/09 09:23:43;;;;;;;;;;;;;;;12.05;84.88;101344.38;4219992;28;20343;-72
2023/10/09 09:25:45;;;;;;;;;;;;;;;12.06;85.01;101336.06;4221297;28;20022;-69
2023/10/09 09:27:52;;;;;;;;;;;;;;;12.08;84.65;101333.19;4219582;28;20023;-70
2023/10/09 09:29:54;;;;;;;;;;;;;;;12.11;84.27;101330.13;4204495;28;20489;-69
2023/10/09 09:31:57;;;;;;;;;;;;;;;12.12;84.06;101329.13;4217650;28;20011;-70
2023/10/09 09:34:03;;;;;;;;;;;;;;;12.10;84.21;101330.31;4215896;28;19924;-70
2023/10/09 09:36:06;;;;;;;;;;;;;;;12.10;84.34;101331.19;4215622;28;20011;-71
2023/10/09 09:38:14;;;;;;;;;;;;;;;12.12;84.51;101322.88;4220226;28;20023;-69
2023/10/09 09:40:28;;;;;;;;;;;;;;;12.16;84.07;101329.63;4217863;28;20042;-70
2023/10/09 09:42:32;;;;;;;;;;;;;;;12.15;84.11;101330.66;4219746;28;20027;-70
2023/10/09 09:44:43;;;;;;;;;;;;;;;12.19;83.97;101335.53;4220086;28;20023;-70
2023/10/09 09:46:44;;;;;;;;;;;;;;;12.21;83.53;101327.22;4216349;28;20022;-70
2023/10/09 09:48:47;;;;;;;;;;;;;;;12.21;83.45;101332.66;4220142;28;20011;-71
2023/10/09 09:50:54;;;;;;;;;;;;;;;12.22;82.63;101340.59;4218904;28;20019;-71
2023/10/09 09:52:56;;;;;;;;;;;;;;;12.21;82.71;101349.75;4219478;28;20018;-71
2023/10/09 09:54:58;;;;;;;;;;;;;;;12.18;82.70;101349.28;4218125;28;19927;-71
2023/10/09 09:57:00;;;;;;;;;;;;;;;12.17;82.92;101353.81;4218677;28;20019;-70
2023/10/09 09:59:06;;;;;;;;;;;;;;;12.19;82.38;101349.06;4219023;28;20018;-70
2023/10/09 10:01:24;;;;;;;;;;;;;;;12.20;82.64;101352.66;4217921;28;20011;-70
2023/10/09 10:03:28;;;;;;;;;;;;;;;12.15;83.73;101363.16;4219934;28;20388;-71
2023/10/09 10:05:30;;;;;;;;;;;;;;;12.16;83.53;101362.13;4216050;28;20462;-71
2023/10/09 10:07:39;;;;;;;;;;;;;;;12.18;83.12;101358.22;4219019;28;20014;-71
2023/10/09 10:09:41;;;;;;;;;;;;;;;12.15;83.06;101345.03;4217979;28;20042;-71
2023/10/09 10:11:44;;;;;;;;;;;;;;;12.11;83.68;101343.69;4220707;28;20018;-70
2023/10/09 10:14:06;;;;;;;;;;;;;;;12.12;83.94;101352.66;4219919;28;20355;-71
2023/10/09 10:16:13;;;;;;;;;;;;;;;12.14;84.12;101350.63;4219238;28;19971;-71
2023/10/09 10:18:19;;;;;;;;;;;;;;;12.14;84.52;101345.22;4218722;28;20049;-70
2023/10/09 10:20:26;;;;;;;;;;;;;;;12.15;84.46;101347.75;4218228;28;20019;-70
2023/10/09 10:22:29;;;;;;;;;;;;;;;12.18;84.07;101344.69;4218216;28;20018;-70
2023/10/09 10:24:52;;;;;;;;;;;;;;;12.16;83.00;101345.88;4218836;28;20023;-70
2023/10/09 10:27:06;;;;;;;;;;;;;;;12.18;83.35;101349.28;4219160;28;20408;-71
2023/10/09 10:29:22;;;;;;;;;;;;;;;12.14;83.15;101351.47;4218155;28;20026;-70
2023/10/09 10:31:26;;;;;;;;;;;;;;;12.18;83.69;101339.28;4217742;28;20378;-70
2023/10/09 10:33:27;;;;;;;;;;;;;;;12.19;83.37;101340.09;4218653;28;20476;-70
2023/10/09 10:35:39;;;;;;;;;;;;;;;12.18;83.14;101325.75;4217944;28;20046;-69
2023/10/09 10:37:50;;;;;;;;;;;;;;;12.18;83.28;101323.03;4219495;28;20370;-70
2023/10/09 10:39:59;;;;;;;;;;;;;;;12.20;83.29;101326.41;4219124;28;20364;-69
2023/10/09 10:42:04;;;;;;;;;;;;;;;12.23;83.11;101327.94;4218774;28;20019;-70
2023/10/09 10:46:34;;;;;;;;;;;;;;;12.20;83.84;101333.69;4218872;28;20019;-70
2023/10/09 10:48:40;;;;;;;;;;;;;;;12.18;83.80;101339.28;4219441;28;20023;-70
2023/10/09 10:50:45;;;;;;;;;;;;;;;12.20;83.32;101329.09;4216543;28;20046;-69
2023/10/09 10:52:57;;;;;;;;;;;;;;;12.23;83.04;101323.34;4218642;28;20014;-69
2023/10/09 10:55:17;;;;;;;;;;;;;;;12.25;82.87;101323.16;4219456;28;20026;-69
2023/10/09 10:57:53;;;;;;;;;;;;;;;12.26;82.89;101328.41;4218830;28;20040;-70
2023/10/09 11:00:12;;;;;;;;;;;;;;;12.28;82.70;101330.94;4217663;28;19924;-69
2023/10/09 11:02:22;;;;;;;;;;;;;;;12.26;82.41;101327.56;4216605;28;20018;-69
2023/10/09 11:04:38;;;;;;;;;;;;;;;12.22;82.92;101324.34;4219267;28;20006;-69
2023/10/09 11:06:43;;;;;;;;;;;;;;;12.23;83.46;101325.22;4217480;28;20051;-69
2023/10/09 11:08:54;;;;;;;;;;;;;;;12.20;83.39;101326.41;4219059;28;20402;-69
2023/10/09 11:11:01;;;;;;;;;;;;;;;12.19;84.06;101324.69;4218833;28;20015;-69
2023/10/09 11:13:30;;;;;;;;;;;;;;;12.21;83.93;101324.53;4218257;28;20019;-70
2023/10/09 11:15:37;;;;;;;;;;;;;;;12.21;83.75;101319.09;4218395;28;20015;-70
2023/10/09 11:17:40;;;;;;;;;;;;;;;12.18;83.95;101323.03;4218805;28;20027;-70
2023/10/09 11:19:44;;;;;;;;;;;;;;;12.24;83.56;101333.16;4218965;28;20072;-70
2023/10/09 11:21:45;;;;;;;;;;;;;;;12.23;83.35;101328.75;4218751;28;20367;-69
2023/10/09 11:23:57;;;;;;;;;;;;;;;12.19;83.29;101321.16;4217045;28;20047;-69
2023/10/09 11:26:20;;;;;;;;;;;;;;;12.26;83.20;101320.28;4216869;28;20023;-69
2023/10/09 11:28:29;;;;;;;;;;;;;;;12.27;82.40;101318.41;4217376;28;20046;-70
2023/10/09 11:30:32;;;;;;;;;;;;;;;12.25;82.76;101305.03;4214945;28;20022;-70
2023/10/09 11:32:37;;;;;;;;;;;;;;;12.24;82.92;101310.63;4217979;28;20840;-70
2023/10/09 11:34:38;;;;;;;;;;;;;;;12.27;83.02;101299.47;4217935;28;20019;-70